Time;durP1;ratioP1;P1;durP2;ratioP2;P2;SDS_P1;SDS_P2;PMS_P1;PMS_P2;Temp;Humidity;BMP_temperature;BMP_pressure;BME280_temperature;BME280_humidity;BME280_pressure;Samples;Min_cycle;Max_cycle;Signal;HPM_P1;HPM_P2
2022/08/22 00:00:26;;;;;;;7.13;2.42;;;;;;;16.94;70.03;101500.00;5085925;28;20515;-74
2022/08/22 00:03:09;;;;;;;6.25;2.13;;;;;;;16.90;70.18;101507.22;5089263;28;20060;-73
2022/08/22 00:06:10;;;;;;;6.15;2.50;;;;;;;16.89;70.22;101494.00;5073034;28;20043;-72
2022/08/22 00:08:54;;;;;;;6.95;2.47;;;;;;;16.88;70.07;101493.16;5076842;28;20060;-73
2022/08/22 00:12:02;;;;;;;7.60;2.33;;;;;;;16.91;70.29;101495.66;5091920;28;20044;-74
2022/08/22 00:14:52;;;;;;;6.97;2.10;;;;;;;16.92;70.50;101493.88;5081431;28;20045;-74
2022/08/22 00:17:37;;;;;;;6.38;2.50;;;;;;;16.89;70.62;101494.84;5083591;28;20451;-73
2022/08/22 00:20:29;;;;;;;7.10;2.28;;;;;;;16.87;70.73;101499.41;5094405;27;20111;-71
2022/08/22 00:23:17;;;;;;;6.18;1.90;;;;;;;16.88;70.67;101495.81;5071774;28;20099;-72
2022/08/22 00:26:25;;;;;;;7.68;2.17;;;;;;;16.90;70.85;101491.25;5077592;28;20119;-71
2022/08/22 00:29:30;;;;;;;7.13;2.75;;;;;;;16.90;70.93;101496.56;5080002;28;21024;-72
2022/08/22 00:32:22;;;;;;;7.38;2.65;;;;;;;16.89;71.20;101505.50;5074341;28;20455;-72
2022/08/22 00:35:19;;;;;;;4.22;2.05;;;;;;;16.86;71.37;101496.78;5077782;28;20864;-71
2022/08/22 00:38:29;;;;;;;6.18;2.20;;;;;;;16.83;71.41;101494.28;5076330;28;20092;-71
2022/08/22 00:41:15;;;;;;;9.10;2.35;;;;;;;16.83;71.52;101494.28;5096191;27;20057;-73
2022/08/22 00:44:14;;;;;;;11.70;2.55;;;;;;;16.79;71.72;101487.38;5089650;28;20045;-72
2022/08/22 00:47:24;;;;;;;6.68;2.40;;;;;;;16.78;71.62;101489.19;5084574;28;20040;-72
2022/08/22 00:50:52;;;;;;;8.48;2.60;;;;;;;16.77;71.56;101498.94;5094635;28;20076;-72
2022/08/22 00:53:59;;;;;;;6.40;2.47;;;;;;;16.76;71.84;101494.56;5066734;28;20119;-72
2022/08/22 00:57:07;;;;;;;6.47;2.30;;;;;;;16.79;71.77;101498.03;5087228;28;20087;-72
2022/08/22 01:00:04;;;;;;;5.13;2.40;;;;;;;16.77;71.97;101498.94;5094090;27;20044;-72
2022/08/22 01:03:16;;;;;;;6.43;2.63;;;;;;;16.77;71.84;101501.63;5098367;27;20056;-72
2022/08/22 01:06:22;;;;;;;11.25;2.85;;;;;;;16.76;71.46;101501.69;5074151;28;20820;-72
2022/08/22 01:09:01;;;;;;;5.28;2.30;;;;;;;16.75;71.82;101510.63;5083216;28;20123;-72
2022/08/22 01:11:51;;;;;;;9.05;2.78;;;;;;;16.72;71.63;101511.63;5098381;28;20107;-72
2022/08/22 01:14:42;;;;;;;7.75;2.22;;;;;;;16.69;71.76;101508.22;5073603;28;20049;-71
2022/08/22 01:17:36;;;;;;;6.47;2.40;;;;;;;16.67;71.94;101508.28;5088045;28;20137;-72
2022/08/22 01:20:28;;;;;;;9.32;2.80;;;;;;;16.68;71.68;101511.84;5082643;28;20527;-71
2022/08/22 01:23:45;;;;;;;7.00;2.22;;;;;;;16.69;71.68;101510.88;5089704;28;20122;-71
2022/08/22 01:26:43;;;;;;;6.00;2.40;;;;;;;16.67;72.01;101510.09;5084843;28;20060;-72
2022/08/22 01:29:35;;;;;;;8.38;2.72;;;;;;;16.65;72.37;101511.97;5076994;28;20079;-72
2022/08/22 01:33:08;;;;;;;5.40;2.30;;;;;;;16.64;72.58;101513.75;5089323;28;20507;-73
2022/08/22 01:35:55;;;;;;;5.13;2.50;;;;;;;16.61;72.70;101506.78;5105271;27;20051;-73
2022/08/22 01:38:58;;;;;;;7.32;2.30;;;;;;;16.61;72.82;101513.91;5105130;27;20116;-73
2022/08/22 01:41:45;;;;;;;9.35;2.30;;;;;;;16.61;73.11;101513.91;5078964;28;20053;-73
2022/08/22 01:44:55;;;;;;;6.55;2.72;;;;;;;16.63;73.12;101505.84;5086252;28;20129;-73
2022/08/22 01:47:33;;;;;;;6.03;2.40;;;;;;;16.65;72.97;101511.97;5089273;28;20044;-73
2022/08/22 01:50:33;;;;;;;6.47;2.38;;;;;;;16.64;72.97;101508.41;5088210;28;20516;-71
2022/08/22 01:53:17;;;;;;;6.72;2.20;;;;;;;16.64;73.04;101505.75;5074848;28;20041;-70
2022/08/22 01:56:21;;;;;;;7.70;2.97;;;;;;;16.67;73.33;101507.44;5083453;28;20048;-71
2022/08/22 01:59:13;;;;;;;9.17;3.33;;;;;;;16.69;73.44;101503.78;5089214;28;20068;-71
2022/08/22 02:02:31;;;;;;;6.72;2.83;;;;;;;16.66;73.89;101509.22;5082005;28;20047;-71
2022/08/22 02:05:24;;;;;;;;;;;;;;;16.62;73.96;101502.31;5085238;28;20064;-71
2022/08/22 02:08:16;;;;;;;8.73;3.00;;;;;;;16.60;74.41;101501.53;5073886;28;19925;-71
2022/08/22 02:11:09;;;;;;;6.20;2.90;;;;;;;16.61;74.59;101501.44;5086222;28;20045;-71
2022/08/22 02:13:49;;;;;;;7.85;2.80;;;;;;;16.62;74.74;101502.31;5073773;28;20040;-70
2022/08/22 02:16:40;;;;;;;9.52;3.05;;;;;;;16.64;74.71;101495.13;5080369;28;20041;-71
2022/08/22 02:19:13;;;;;;;9.82;2.88;;;;;;;16.65;74.83;101498.66;5082332;28;20116;-71
2022/08/22 02:21:57;;;;;;;11.20;3.20;;;;;;;16.65;74.85;101491.53;5074099;28;20121;-70
2022/08/22 02:24:46;;;;;;;8.15;3.35;;;;;;;16.64;74.88;101499.59;5090323;28;20067;-72
2022/08/22 02:27:45;;;;;;;7.03;2.85;;;;;;;16.63;74.79;101497.84;5083088;28;20093;-72
2022/08/22 02:30:22;;;;;;;10.05;2.97;;;;;;;16.62;75.12;101497.00;5078194;28;20041;-72
2022/08/22 02:33:20;;;;;;;9.88;3.10;;;;;;;16.63;75.27;101490.75;5091452;28;20094;-72
2022/08/22 02:36:13;;;;;;;7.80;2.88;;;;;;;16.61;75.37;101489.94;5073316;28;20072;-72
2022/08/22 02:38:55;;;;;;;7.90;3.13;;;;;;;16.60;75.78;101490.88;5082304;28;20064;-72
2022/08/22 02:41:55;;;;;;;9.38;2.92;;;;;;;16.57;75.65;101491.00;5083320;28;20072;-71
2022/08/22 02:44:35;;;;;;;8.73;3.08;;;;;;;16.58;75.59;101493.59;5082579;28;20556;-72
2022/08/22 02:47:26;;;;;;;7.82;3.10;;;;;;;16.59;75.88;101489.16;5079513;28;20045;-72
2022/08/22 02:50:33;;;;;;;9.85;2.90;;;;;;;16.59;75.73;101491.81;5091556;28;20127;-73
2022/08/22 02:53:31;;;;;;;8.60;3.13;;;;;;;16.57;75.87;101486.56;5074939;28;20192;-72
2022/08/22 02:56:21;;;;;;;9.93;3.10;;;;;;;16.57;75.77;101491.00;5072557;28;20098;-73
2022/08/22 02:59:01;;;;;;;11.52;2.92;;;;;;;16.54;75.82;101486.69;5076532;28;20558;-72
2022/08/22 03:01:32;;;;;;;8.02;2.83;;;;;;;16.55;75.90;101487.56;5089841;28;20049;-72
2022/08/22 03:04:31;;;;;;;10.98;3.03;;;;;;;16.52;76.02;101491.22;5085447;28;20160;-72
2022/08/22 03:07:10;;;;;;;8.75;3.20;;;;;;;16.51;76.15;101491.31;5073037;28;20091;-72
2022/08/22 03:09:56;;;;;;;9.48;3.17;;;;;;;16.49;75.91;101479.84;5079360;28;20455;-72
2022/08/22 03:12:56;;;;;;;7.00;3.15;;;;;;;16.47;76.41;101485.25;5074859;28;20069;-72
2022/08/22 03:15:55;;;;;;;8.95;3.10;;;;;;;16.42;76.49;101484.59;5071877;28;20088;-72
2022/08/22 03:18:43;;;;;;;7.68;3.13;;;;;;;16.36;76.63;101476.88;5078166;28;20072;-72
2022/08/22 03:21:40;;;;;;;6.65;2.75;;;;;;;16.38;76.74;101475.88;5080846;28;20136;-72
2022/08/22 03:24:15;;;;;;;8.80;2.90;;;;;;;16.40;76.67;101471.34;5076135;28;20115;-71
2022/08/22 03:27:09;;;;;;;7.10;2.47;;;;;;;16.42;76.72;101464.19;5091615;28;20041;-71
2022/08/22 03:29:45;;;;;;;5.30;3.08;;;;;;;16.48;76.73;101471.03;5084190;28;20865;-71
2022/08/22 03:32:19;;;;;;;9.70;3.30;;;;;;;16.49;76.51;101470.06;5089960;28;20098;-71
2022/08/22 03:35:04;;;;;;;9.15;2.97;;;;;;;16.52;76.66;101471.75;5091639;28;20531;-71
2022/08/22 03:37:40;;;;;;;;;;;;;;;16.54;76.60;101467.19;5084887;28;20524;-72
2022/08/22 03:40:59;;;;;;;10.75;3.35;;;;;;;16.55;76.53;101463.59;5086994;28;19978;-72
2022/08/22 03:44:17;;;;;;;9.60;3.20;;;;;;;16.58;76.94;101455.47;5071133;28;20505;-72
2022/08/22 03:47:15;;;;;;;8.32;3.00;;;;;;;16.63;76.83;101448.16;5083041;28;20056;-71
2022/08/22 03:50:26;;;;;;;9.05;3.22;;;;;;;16.68;76.98;101446.13;5090492;28;20036;-71
2022/08/22 03:53:16;;;;;;;8.35;3.55;;;;;;;16.73;76.98;101444.13;5089955;28;20048;-72
2022/08/22 03:56:32;;;;;;;7.78;3.67;;;;;;;16.76;76.73;101446.63;5083564;28;20064;-72
2022/08/22 03:59:24;;;;;;;12.65;4.20;;;;;;;16.77;76.70;101443.03;5074756;28;20112;-72
2022/08/22 04:02:32;;;;;;;9.10;3.65;;;;;;;16.75;76.71;101436.91;5082690;28;20041;-71
2022/08/22 04:05:39;;;;;;;12.32;3.65;;;;;;;16.74;77.00;101450.31;5072144;28;20117;-73
2022/08/22 04:08:28;;;;;;;13.23;3.72;;;;;;;16.68;77.08;101445.28;5072124;28;20033;-71
2022/08/22 04:11:23;;;;;;;7.78;3.72;;;;;;;16.61;77.32;101452.69;5077552;28;20041;-71
2022/08/22 04:14:31;;;;;;;;;;;;;;;16.56;77.39;101447.56;5083805;28;20190;-71
2022/08/22 04:17:40;;;;;;;9.52;3.65;;;;;;;16.57;77.47;101459.06;5081144;28;19931;-71
2022/08/22 04:21:04;;;;;;;9.80;4.38;;;;;;;16.54;77.43;101462.75;5074636;28;20114;-72
2022/08/22 04:24:09;;;;;;;11.23;4.10;;;;;;;16.49;77.45;101467.41;5089523;28;20617;-72
2022/08/22 04:27:01;;;;;;;11.35;4.05;;;;;;;16.48;77.58;101464.81;5083507;28;20491;-72
2022/08/22 04:29:51;;;;;;;9.20;4.10;;;;;;;16.48;77.82;101464.81;5074476;28;20453;-72
2022/08/22 04:32:39;;;;;;;11.13;4.10;;;;;;;16.46;77.62;101463.09;5085271;28;20927;-72
2022/08/22 04:35:24;;;;;;;10.52;4.10;;;;;;;16.42;77.62;101464.19;5084260;28;20037;-72
2022/08/22 04:38:11;;;;;;;10.75;4.25;;;;;;;16.44;77.52;101472.09;5095324;28;20044;-72
2022/08/22 04:40:47;;;;;;;10.80;4.57;;;;;;;16.42;77.74;101463.28;5075097;28;20045;-73
2022/08/22 04:43:45;;;;;;;8.68;4.07;;;;;;;16.44;77.75;101464.09;5091898;28;20037;-74
2022/08/22 04:46:25;;;;;;;9.52;4.35;;;;;;;16.43;77.72;101468.53;5089691;28;20443;-74
2022/08/22 04:49:24;;;;;;;8.20;4.00;;;;;;;16.41;77.66;101475.75;5077923;28;20044;-71
2022/08/22 04:52:39;;;;;;;10.10;4.40;;;;;;;16.48;77.88;101473.69;5074929;28;20381;-71
2022/08/22 04:55:57;;;;;;;11.20;4.22;;;;;;;16.54;77.81;101478.72;5078607;28;20032;-70
2022/08/22 04:59:10;;;;;;;13.77;4.85;;;;;;;16.56;77.74;101483.97;5083493;28;20052;-71
2022/08/22 05:01:53;;;;;;;8.93;3.88;;;;;;;16.59;77.82;101481.16;5086449;28;20039;-72
2022/08/22 05:04:34;;;;;;;8.63;4.03;;;;;;;16.60;77.83;101481.09;5084670;28;20543;-72
2022/08/22 05:07:17;;;;;;;10.10;4.28;;;;;;;16.61;78.03;101477.50;5092195;28;20045;-71
2022/08/22 05:10:01;;;;;;;12.43;4.30;;;;;;;16.61;77.99;101469.50;5091743;28;20040;-72
2022/08/22 05:12:54;;;;;;;10.43;4.95;;;;;;;16.66;77.94;101477.28;5084907;28;20040;-72
2022/08/22 05:15:34;;;;;;;10.73;4.47;;;;;;;16.68;77.58;101482.56;5096881;28;20074;-73
2022/08/22 05:18:12;;;;;;;10.68;4.45;;;;;;;16.68;77.49;101488.72;5095235;28;20127;-71
2022/08/22 05:20:46;;;;;;;9.90;4.25;;;;;;;16.66;77.76;101487.06;5088646;28;20096;-71
2022/08/22 05:23:32;;;;;;;10.38;4.90;;;;;;;16.66;77.96;101490.59;5078741;28;20040;-70
2022/08/22 05:26:05;;;;;;;9.77;4.68;;;;;;;16.65;77.78;101486.19;5099125;28;20809;-71
2022/08/22 05:28:37;;;;;;;10.05;4.43;;;;;;;16.71;77.89;101491.25;5108082;27;20036;-71
2022/08/22 05:31:14;;;;;;;10.65;4.55;;;;;;;16.77;77.77;101482.97;5105029;27;20048;-71
2022/08/22 05:33:51;;;;;;;9.77;3.97;;;;;;;16.84;77.72;101486.22;5106294;27;20045;-71
2022/08/22 05:36:25;;;;;;;14.23;3.88;;;;;;;16.93;77.91;101482.28;5092755;28;20131;-71
2022/08/22 05:39:10;;;;;;;12.05;3.72;;;;;;;17.08;77.49;101484.22;5093376;28;20135;-70
2022/08/22 05:41:40;;;;;;;11.20;4.03;;;;;;;17.24;77.05;101488.84;5088975;28;20045;-70
2022/08/22 05:44:15;;;;;;;12.70;4.45;;;;;;;17.38;76.68;101481.03;5073961;28;20037;-71
2022/08/22 05:46:51;;;;;;;11.48;4.28;;;;;;;17.47;76.27;101490.38;5083872;28;20075;-70
2022/08/22 05:49:51;;;;;;;9.13;4.07;;;;;;;17.50;76.02;101497.38;5100200;27;20037;-70
2022/08/22 05:52:53;;;;;;;10.43;4.00;;;;;;;17.51;75.92;101497.28;5088897;28;20112;-70
2022/08/22 05:55:51;;;;;;;12.48;4.05;;;;;;;17.58;75.76;101500.50;5091290;28;20040;-70
2022/08/22 05:58:37;;;;;;;13.85;4.85;;;;;;;17.62;75.64;101504.75;5088199;28;20076;-70
2022/08/22 06:01:37;;;;;;;11.82;4.78;;;;;;;17.73;75.52;101500.69;5102860;28;20220;-70
2022/08/22 06:04:20;;;;;;;7.43;3.63;;;;;;;17.85;75.26;101494.75;5110042;27;20538;-70
2022/08/22 06:07:19;;;;;;;7.32;3.90;;;;;;;17.97;74.79;101502.13;5111629;27;20159;-71
2022/08/22 06:09:46;;;;;;;10.98;4.10;;;;;;;18.00;74.43;101496.66;5093341;28;20496;-71
2022/08/22 06:12:32;;;;;;;11.05;4.03;;;;;;;18.07;74.49;101499.88;5092081;28;20099;-71
2022/08/22 06:15:22;;;;;;;11.40;4.50;;;;;;;18.12;74.14;101495.16;5091058;28;20071;-71
2022/08/22 06:17:59;;;;;;;8.43;4.38;;;;;;;18.15;73.99;101495.00;5104147;28;20635;-71
2022/08/22 06:20:35;;;;;;;9.02;4.10;;;;;;;18.21;73.79;101504.50;5098889;28;20041;-71
2022/08/22 06:23:06;;;;;;;12.23;4.32;;;;;;;18.23;73.43;101504.41;5113642;27;20487;-71
2022/08/22 06:25:39;;;;;;;9.50;4.07;;;;;;;18.22;73.56;101506.22;5118778;27;20045;-70
2022/08/22 06:28:16;;;;;;;14.10;5.13;;;;;;;18.24;73.53;101503.47;5073994;28;20112;-70
2022/08/22 06:30:46;;;;;;;14.85;4.47;;;;;;;18.19;73.53;101509.03;5086712;28;21337;-70
2022/08/22 06:33:23;;;;;;;12.30;4.95;;;;;;;18.15;73.39;101503.00;5093369;28;20091;-71
2022/08/22 06:39:16;;;;;;;9.48;4.43;;;;;;;18.14;73.94;101508.44;5086325;28;20036;-70
2022/08/22 06:42:07;;;;;;;9.70;4.15;;;;;;;18.17;73.92;101513.59;5085631;28;20060;-70
2022/08/22 06:45:06;;;;;;;9.95;4.85;;;;;;;18.17;74.06;101513.59;5109793;28;20502;-71
2022/08/22 06:47:48;;;;;;;12.70;5.22;;;;;;;18.27;73.70;101514.84;5089917;28;20049;-71
2022/08/22 06:50:29;;;;;;;10.68;4.57;;;;;;;18.39;73.92;101528.47;5088150;28;20048;-71
2022/08/22 06:53:07;;;;;;;11.90;4.50;;;;;;;18.57;73.61;101523.97;5085430;28;20080;-71
2022/08/22 06:55:40;;;;;;;16.80;4.80;;;;;;;18.67;73.43;101530.56;5089539;28;20040;-71
2022/08/22 06:58:26;;;;;;;9.93;4.93;;;;;;;18.82;72.68;101526.19;5090694;28;20048;-70
2022/08/22 07:01:26;;;;;;;8.80;4.93;;;;;;;18.91;72.44;101528.38;5088588;28;20102;-70
2022/08/22 07:04:02;;;;;;;9.43;5.07;;;;;;;18.97;71.99;101529.88;5088880;28;20049;-70
2022/08/22 07:06:35;;;;;;;13.27;4.57;;;;;;;18.99;71.87;101532.44;5090288;28;20110;-70
2022/08/22 07:09:05;;;;;;;11.95;5.32;;;;;;;19.06;71.98;101533.84;5095434;28;20040;-70
2022/08/22 07:11:40;;;;;;;10.80;4.68;;;;;;;19.17;71.63;101533.25;5093643;28;20120;-70
2022/08/22 07:14:13;;;;;;;8.23;4.20;;;;;;;19.24;71.30;101530.16;5093674;28;20175;-71
2022/08/22 07:16:58;;;;;;;10.63;5.07;;;;;;;19.38;70.64;101537.41;5082368;28;20045;-70
2022/08/22 07:19:35;;;;;;;11.63;4.80;;;;;;;19.42;70.29;101534.56;5090704;28;20087;-71
2022/08/22 07:22:29;;;;;;;12.63;4.65;;;;;;;19.42;70.04;101540.75;5086730;28;20048;-70
2022/08/22 07:25:15;;;;;;;11.57;4.70;;;;;;;19.38;69.91;101541.91;5089398;28;20131;-70
2022/08/22 07:28:19;;;;;;;14.77;4.80;;;;;;;19.32;70.34;101532.41;5091866;28;20060;-70
2022/08/22 07:31:24;;;;;;;10.63;5.20;;;;;;;19.38;70.09;101548.09;5086445;28;20040;-70
2022/08/22 07:34:21;;;;;;;11.83;4.07;;;;;;;19.38;70.27;101533.88;5088764;28;20060;-67
2022/08/22 07:37:01;;;;;;;9.70;4.90;;;;;;;19.53;69.89;101540.16;5083655;28;20126;-69
2022/08/22 07:39:44;;;;;;;13.85;4.97;;;;;;;19.63;69.14;101543.16;5088931;28;20044;-69
2022/08/22 07:42:24;;;;;;;10.73;4.60;;;;;;;19.60;68.94;101546.88;5081166;28;20072;-70
2022/08/22 07:45:13;;;;;;;12.02;5.07;;;;;;;19.57;69.12;101538.16;5086922;28;20583;-68
2022/08/22 07:48:18;;;;;;;10.18;4.30;;;;;;;19.60;69.36;101532.63;5070706;28;20045;-70
2022/08/22 07:50:57;;;;;;;10.45;4.40;;;;;;;19.67;69.54;101528.66;5073166;28;20060;-70
2022/08/22 07:53:47;;;;;;;6.07;4.13;;;;;;;19.87;69.27;101538.22;5090980;28;20112;-70
2022/08/22 07:56:24;;;;;;;9.52;4.15;;;;;;;20.05;68.63;101527.38;5088248;28;20068;-70
2022/08/22 07:59:09;;;;;;;10.23;4.18;;;;;;;20.20;67.88;101526.47;5089462;28;20102;-70
2022/08/22 08:01:49;;;;;;;10.00;4.28;;;;;;;20.33;67.07;101526.56;5090780;28;20433;-69
2022/08/22 08:04:23;;;;;;;8.20;3.53;;;;;;;20.41;67.28;101520.75;5092253;28;20061;-69
2022/08/22 08:06:56;;;;;;;10.32;4.15;;;;;;;20.53;66.97;101525.38;5110924;27;20070;-70
2022/08/22 08:09:29;;;;;;;11.52;4.30;;;;;;;20.72;66.58;101510.81;5113454;27;20048;-70
2022/08/22 08:12:01;;;;;;;11.70;3.87;;;;;;;20.87;65.83;101514.38;5109641;27;20045;-70
2022/08/22 08:14:31;;;;;;;9.63;3.90;;;;;;;21.01;64.97;101506.31;5085777;28;20315;-70
2022/08/22 08:17:29;;;;;;;10.48;4.15;;;;;;;21.05;64.12;101513.22;5090663;27;20493;-70
2022/08/22 08:20:07;;;;;;;13.50;4.30;;;;;;;21.02;64.04;101501.81;5091666;28;20040;-71
2022/08/22 08:22:37;;;;;;;10.27;4.10;;;;;;;21.04;64.58;101508.81;5085899;27;20041;-71
2022/08/22 08:25:07;;;;;;;11.82;4.20;;;;;;;21.18;64.31;101499.03;5088206;28;20048;-70
2022/08/22 08:30:43;;;;;;;11.00;4.25;;;;;;;21.36;63.43;101505.84;5097973;28;20091;-70
2022/08/22 08:33:18;;;;;;;10.02;4.03;;;;;;;21.40;62.97;101502.03;5088365;28;20132;-73
2022/08/22 08:36:04;;;;;;;9.73;3.63;;;;;;;21.41;63.24;101494.81;5087955;28;20041;-72
2022/08/22 08:38:45;;;;;;;7.22;3.40;;;;;;;21.52;62.99;101489.63;5089140;28;20153;-71
2022/08/22 08:41:46;;;;;;;10.38;3.78;;;;;;;21.84;62.04;101486.63;5082002;28;20068;-71
2022/08/22 08:44:48;;;;;;;8.18;3.55;;;;;;;21.84;61.31;101491.13;5079600;28;20110;-72
2022/08/22 08:47:51;;;;;;;7.57;3.13;;;;;;;21.94;60.76;101480.63;5078449;28;20135;-72
2022/08/22 08:50:53;;;;;;;6.15;3.25;;;;;;;21.97;60.13;101486.63;5083285;28;20045;-70
2022/08/22 08:54:08;;;;;;;10.38;3.17;;;;;;;21.86;60.71;101489.19;5082162;28;20091;-70
2022/08/22 08:56:40;;;;;;;9.63;3.45;;;;;;;21.84;60.71;101480.38;5080772;28;20041;-72
2022/08/22 09:00:05;;;;;;;9.07;2.72;;;;;;;21.77;60.88;101479.97;5084071;28;20108;-71
2022/08/22 09:02:56;;;;;;;9.27;3.22;;;;;;;21.69;61.01;101483.16;5081311;28;20057;-70
2022/08/22 09:06:04;;;;;;;9.13;3.70;;;;;;;21.69;61.66;101483.16;5085828;28;20102;-69
2022/08/22 09:09:06;;;;;;;11.88;3.72;;;;;;;21.77;61.90;101487.13;5079833;28;20140;-70
2022/08/22 09:12:05;;;;;;;10.35;2.78;;;;;;;21.87;61.71;101488.22;5076124;28;20045;-69
2022/08/22 09:14:48;;;;;;;10.15;3.22;;;;;;;21.93;60.72;101487.81;5089721;28;20044;-70
2022/08/22 09:17:37;;;;;;;9.75;3.05;;;;;;;21.96;60.76;101481.38;5080210;28;20095;-70
2022/08/22 09:20:51;;;;;;;7.72;3.17;;;;;;;22.12;60.33;101484.72;5086356;28;20131;-69
2022/08/22 09:23:48;;;;;;;7.68;3.00;;;;;;;22.26;60.25;101493.66;5084310;28;20040;-69
2022/08/22 09:27:09;;;;;;;9.27;2.88;;;;;;;22.41;59.98;101481.84;5091368;28;20518;-69
2022/08/22 09:29:53;;;;;;;13.57;3.03;;;;;;;22.60;59.32;101483.22;5060492;28;20053;-68
2022/08/22 09:32:44;;;;;;;9.75;2.92;;;;;;;22.74;57.96;101483.09;5083631;28;20582;-70
2022/08/22 09:35:45;;;;;;;7.25;2.25;;;;;;;22.82;57.15;101479.00;5082498;28;20093;-68
2022/08/22 09:38:22;;;;;;;9.90;2.58;;;;;;;22.88;56.60;101473.19;5078670;28;20179;-71
2022/08/22 09:41:43;;;;;;;5.80;2.30;;;;;;;22.93;56.55;101484.47;5093569;28;20049;-70
2022/08/22 09:44:36;;;;;;;8.10;2.50;;;;;;;23.07;55.95;101476.25;5090928;28;20065;-69
2022/08/22 09:47:29;;;;;;;8.38;2.67;;;;;;;23.17;55.50;101470.19;5074052;28;20488;-69
2022/08/22 09:50:29;;;;;;;5.22;2.03;;;;;;;23.31;55.10;101475.44;5095435;28;20589;-70
2022/08/22 09:53:20;;;;;;;7.40;2.22;;;;;;;23.40;54.06;101473.88;5093551;27;20065;-70
2022/08/22 09:56:22;;;;;;;12.18;2.03;;;;;;;23.52;54.50;101467.59;5106219;27;20045;-71
2022/08/22 09:59:17;;;;;;;8.55;2.13;;;;;;;23.68;53.56;101466.41;5083591;28;20133;-70
2022/08/22 10:01:49;;;;;;;;;;;;;;;23.79;54.27;101463.75;5082663;28;20041;-71
2022/08/22 10:04:56;;;;;;;6.40;2.10;;;;;;;24.05;53.87;101474.41;5086214;28;19931;-72
2022/08/22 10:07:57;;;;;;;8.75;1.95;;;;;;;24.29;50.08;101463.53;5073705;28;20045;-71
2022/08/22 10:10:53;;;;;;;8.75;2.10;;;;;;;24.33;49.35;101462.28;5090967;28;20087;-72
2022/08/22 10:13:58;;;;;;;6.95;2.00;;;;;;;24.38;50.60;101461.09;5112918;27;20131;-71
2022/08/22 10:17:07;;;;;;;5.82;1.90;;;;;;;24.56;49.46;101456.06;5081321;28;20045;-71
2022/08/22 10:19:45;;;;;;;7.18;1.75;;;;;;;24.79;46.76;101459.63;5092661;28;20044;-71
2022/08/22 10:22:33;;;;;;;7.13;2.00;;;;;;;24.80;46.57;101445.16;5093062;28;20113;-71
2022/08/22 10:25:33;;;;;;;3.17;1.30;;;;;;;24.82;45.97;101445.91;5096678;28;20119;-71
2022/08/22 10:28:15;;;;;;;5.13;1.40;;;;;;;24.91;45.33;101439.75;5093531;28;20082;-72
2022/08/22 10:31:38;;;;;;;6.28;1.80;;;;;;;25.02;45.61;101438.03;5089888;28;20094;-75
2022/08/22 10:34:44;;;;;;;7.10;1.95;;;;;;;25.19;44.99;101426.69;5086739;28;20127;-75
2022/08/22 10:37:31;;;;;;;4.65;1.80;;;;;;;25.38;43.24;101431.41;5079560;27;20096;-73
2022/08/22 10:40:45;;;;;;;8.35;1.73;;;;;;;25.42;43.19;101432.88;5081717;28;20068;-72
2022/08/22 10:43:57;;;;;;;7.18;1.92;;;;;;;25.54;43.46;101428.25;5071030;28;20056;-73
2022/08/22 10:46:51;;;;;;;7.55;1.85;;;;;;;25.69;43.67;101425.25;5082106;28;20068;-72
2022/08/22 10:49:32;;;;;;;8.02;1.88;;;;;;;25.83;43.99;101426.75;5092971;28;20080;-72
2022/08/22 10:52:09;;;;;;;5.80;1.75;;;;;;;26.03;40.98;101412.38;5072743;28;20080;-73
2022/08/22 10:55:12;;;;;;;5.57;1.88;;;;;;;26.13;40.81;101417.00;5085334;28;20071;-74
2022/08/22 10:58:20;;;;;;;7.40;1.90;;;;;;;26.04;40.32;101416.78;5078762;28;20068;-73
2022/08/22 11:00:58;;;;;;;4.82;1.70;;;;;;;25.91;39.94;101416.16;5081610;28;20045;-72
2022/08/22 11:04:22;;;;;;;4.20;1.58;;;;;;;25.87;39.20;101417.41;5089873;28;20234;-72
2022/08/22 11:07:27;;;;;;;8.05;1.70;;;;;;;25.95;40.23;101422.13;5090088;28;21080;-73
2022/08/22 11:10:14;;;;;;;4.88;1.60;;;;;;;26.24;40.22;101418.78;5072714;28;20123;-73
2022/08/22 11:13:04;;;;;;;10.60;2.45;;;;;;;26.36;39.55;101417.66;5098715;28;20040;-70
2022/08/22 11:16:00;;;;;;;9.02;1.75;;;;;;;26.32;38.86;101414.38;5088372;28;20498;-71
2022/08/22 11:18:57;;;;;;;7.88;2.10;;;;;;;26.33;39.62;101410.69;5085980;28;20048;-70
2022/08/22 11:22:37;;;;;;;7.05;1.95;;;;;;;26.30;39.37;101413.66;5077717;28;20044;-71
2022/08/22 11:25:26;;;;;;;6.43;2.00;;;;;;;26.18;39.91;101406.66;5086585;28;20048;-71
2022/08/22 11:28:29;;;;;;;5.13;1.70;;;;;;;26.12;39.35;101408.06;5081506;28;20112;-70
2022/08/22 11:31:42;;;;;;;5.03;1.70;;;;;;;26.26;38.19;101404.13;5073708;28;20469;-71
2022/08/22 11:34:40;;;;;;;6.82;1.85;;;;;;;26.27;38.11;101402.28;5074775;28;20099;-71
2022/08/22 11:37:48;;;;;;;4.38;1.40;;;;;;;26.32;37.92;101406.28;5079057;28;20575;-70
2022/08/22 11:40:56;;;;;;;8.18;1.75;;;;;;;26.68;37.47;101400.41;5078443;28;20044;-71
2022/08/22 11:44:04;;;;;;;7.28;1.80;;;;;;;26.90;37.32;101402.06;5079916;28;20087;-69
2022/08/22 11:46:42;;;;;;;5.38;1.52;;;;;;;27.09;36.96;101411.19;5096003;28;20512;-68
2022/08/22 11:49:45;;;;;;;6.47;1.60;;;;;;;27.20;37.13;101400.25;5078561;28;20048;-69
2022/08/22 11:52:36;;;;;;;5.60;1.45;;;;;;;27.39;35.82;101398.53;5092592;28;20048;-67
2022/08/22 11:55:35;;;;;;;6.03;1.65;;;;;;;27.38;36.12;101397.66;5085937;28;20040;-70
2022/08/22 11:58:21;;;;;;;6.43;1.30;;;;;;;27.55;34.70;101387.97;5093690;28;20064;-71
2022/08/22 12:01:09;;;;;;;5.90;1.80;;;;;;;27.58;36.15;101386.81;5094685;28;20051;-69
2022/08/22 12:04:14;;;;;;;8.63;1.77;;;;;;;27.57;35.04;101382.44;5105707;27;20102;-70
2022/08/22 12:06:50;;;;;;;5.53;1.63;;;;;;;27.51;34.86;101386.56;5110579;28;20588;-70
2022/08/22 12:09:41;;;;;;;8.68;1.67;;;;;;;27.51;35.86;101374.88;5073217;28;20087;-69
2022/08/22 12:12:59;;;;;;;6.00;1.70;;;;;;;27.72;35.21;101367.44;5089608;28;20071;-70
2022/08/22 12:16:02;;;;;;;6.70;1.55;;;;;;;27.89;34.50;101367.66;5097989;28;20063;-69
2022/08/22 12:18:47;;;;;;;9.30;1.60;;;;;;;28.03;35.11;101375.31;5102227;27;20536;-70
2022/08/22 12:21:39;;;;;;;7.50;1.48;;;;;;;28.32;34.08;101358.09;5085463;28;20052;-70
2022/08/22 12:24:50;;;;;;;4.57;1.50;;;;;;;28.44;34.31;101361.44;5082279;28;20533;-70
2022/08/22 12:27:19;;;;;;;9.88;1.90;;;;;;;28.51;33.93;101358.97;5074986;28;20087;-71
2022/08/22 12:30:13;;;;;;;4.57;1.50;;;;;;;28.44;33.38;101360.59;5078347;28;20595;-70
2022/08/22 12:33:09;;;;;;;5.10;1.40;;;;;;;28.39;32.99;101363.75;5075596;28;20045;-70
2022/08/22 12:36:29;;;;;;;5.22;1.63;;;;;;;28.16;33.03;101371.44;5080618;28;20040;-70
2022/08/22 12:39:15;;;;;;;5.03;1.65;;;;;;;27.86;33.90;101352.56;5076679;28;20080;-70
2022/08/22 12:42:25;;;;;;;6.50;1.60;;;;;;;27.76;34.16;101359.03;5077584;28;20068;-70
2022/08/22 12:45:32;;;;;;;4.93;1.23;;;;;;;27.71;34.58;101363.00;5090532;28;20040;-71
2022/08/22 12:48:21;;;;;;;8.77;1.55;;;;;;;27.72;35.02;101363.88;5070854;28;20065;-70
2022/08/22 12:51:23;;;;;;;6.18;1.60;;;;;;;27.93;35.55;101362.81;5088059;28;20102;-71
2022/08/22 12:54:22;;;;;;;5.57;1.40;;;;;;;28.09;34.10;101357.63;5090576;28;20602;-71
2022/08/22 12:57:14;;;;;;;7.43;1.45;;;;;;;28.07;34.13;101351.47;5100362;28;20528;-71
2022/08/22 13:00:02;;;;;;;7.35;2.42;;;;;;;28.03;33.86;101353.63;5095855;28;20048;-71
2022/08/22 13:02:38;;;;;;;13.73;2.55;;;;;;;28.03;34.71;101352.78;5093236;28;20200;-71
2022/08/22 13:05:17;;;;;;;6.20;1.38;;;;;;;28.10;33.52;101353.06;5095121;28;20072;-71
2022/08/22 13:07:59;;;;;;;8.85;1.77;;;;;;;28.14;33.90;101355.31;5084022;28;20040;-71
2022/08/22 13:11:00;;;;;;;10.43;1.98;;;;;;;28.26;34.05;101352.41;5079833;28;20421;-71
2022/08/22 13:13:34;;;;;;;6.55;1.52;;;;;;;28.38;34.50;101344.94;5074769;28;20041;-71
2022/08/22 13:16:09;;;;;;;8.52;1.88;;;;;;;28.54;34.37;101347.84;5101637;28;20051;-71
2022/08/22 13:19:03;;;;;;;7.30;1.70;;;;;;;28.71;33.11;101337.16;5114005;27;20521;-72
2022/08/22 13:21:43;;;;;;;8.15;1.65;;;;;;;28.88;33.71;101336.34;5075794;28;20048;-71
2022/08/22 13:25:14;;;;;;;4.38;1.50;;;;;;;29.10;32.79;101335.00;5076494;28;20060;-70